createdAt,value
2023-04-26T00:00:31.539Z,71.80
2023-04-26T00:03:00.677Z,71.90
2023-04-26T00:05:29.423Z,72.00
2023-04-26T00:07:56.537Z,72.00
2023-04-26T00:10:23.280Z,72.10
2023-04-26T00:12:49.955Z,72.20
2023-04-26T00:15:16.618Z,72.20
2023-04-26T00:17:43.909Z,72.20
2023-04-26T00:20:13.369Z,72.20
2023-04-26T00:22:40.670Z,72.40
2023-04-26T00:25:07.796Z,72.40
2023-04-26T00:27:34.457Z,72.50
2023-04-26T00:30:01.163Z,72.60
2023-04-26T00:32:28.207Z,72.70
2023-04-26T00:34:55.023Z,72.70
2023-04-26T00:37:21.829Z,72.70
2023-04-26T00:39:48.645Z,72.80
2023-04-26T00:42:15.693Z,72.80
2023-04-26T00:44:42.842Z,72.90
2023-04-26T00:47:09.780Z,73.10
2023-04-26T00:49:36.835Z,73.00
2023-04-26T00:52:03.906Z,73.00
2023-04-26T00:54:30.766Z,73.10
2023-04-26T00:56:57.915Z,73.20
2023-04-26T00:59:24.587Z,73.30
2023-04-26T01:01:51.841Z,73.40
2023-04-26T01:04:19.131Z,73.40
2023-04-26T01:06:46.311Z,73.50
2023-04-26T01:09:15.261Z,73.50
2023-04-26T01:11:43.621Z,73.60
2023-04-26T01:14:11.009Z,73.80
2023-04-26T01:16:39.305Z,73.80
2023-04-26T01:19:13.153Z,73.80
2023-04-26T01:21:40.768Z,74.10
2023-04-26T01:24:09.599Z,73.90
2023-04-26T01:26:46.497Z,74.20
2023-04-26T01:29:21.569Z,74.10
2023-04-26T01:31:48.909Z,74.20
2023-04-26T01:34:16.091Z,74.20
2023-04-26T01:36:45.932Z,74.30
2023-04-26T01:39:12.704Z,74.40
2023-04-26T01:41:39.382Z,74.40
2023-04-26T01:44:06.572Z,74.50
2023-04-26T01:46:33.427Z,74.70
2023-04-26T01:49:00.181Z,74.80
2023-04-26T01:51:27.076Z,74.90
2023-04-26T01:53:53.830Z,75.00
2023-04-26T01:56:20.994Z,74.90
2023-04-26T01:58:47.704Z,75.00
2023-04-26T02:01:14.450Z,75.10
2023-04-26T02:03:41.328Z,75.10
2023-04-26T02:06:08.191Z,75.10
2023-04-26T02:08:34.808Z,75.20
2023-04-26T02:11:01.421Z,75.30
2023-04-26T02:13:28.081Z,75.30
2023-04-26T02:15:54.830Z,75.40
2023-04-26T02:18:21.854Z,75.50
2023-04-26T02:20:50.348Z,75.50
2023-04-26T02:23:17.322Z,75.60
2023-04-26T02:25:47.428Z,75.60
2023-04-26T02:28:14.452Z,75.90
2023-04-26T02:30:41.152Z,75.70
2023-04-26T02:33:08.916Z,75.80
2023-04-26T02:35:37.313Z,75.90
2023-04-26T02:38:04.929Z,76.00
2023-04-26T02:40:31.788Z,76.10
2023-04-26T02:42:58.555Z,76.10
2023-04-26T02:45:25.420Z,76.20
2023-04-26T02:47:52.997Z,76.30
2023-04-26T02:50:20.263Z,76.20
2023-04-26T02:52:48.125Z,76.40
2023-04-26T02:55:14.864Z,76.50
2023-04-26T02:57:42.662Z,76.60
2023-04-26T03:00:10.213Z,76.90
2023-04-26T03:02:37.389Z,76.80
2023-04-26T03:05:04.472Z,76.90
2023-04-26T03:07:31.921Z,77.00
2023-04-26T03:09:58.983Z,77.20
2023-04-26T03:12:26.746Z,77.30
2023-04-26T03:14:53.622Z,77.50
2023-04-26T03:17:20.365Z,77.50
2023-04-26T03:19:47.469Z,77.50
2023-04-26T03:22:16.134Z,77.50
2023-04-26T03:24:43.700Z,77.70
2023-04-26T03:27:11.511Z,77.90
2023-04-26T03:29:39.281Z,77.90
2023-04-26T03:32:07.243Z,77.90
2023-04-26T03:34:34.220Z,78.20
2023-04-26T03:37:02.300Z,78.20
2023-04-26T03:39:30.074Z,78.40
2023-04-26T03:41:56.684Z,78.40
2023-04-26T03:44:23.485Z,78.50
2023-04-26T03:46:50.507Z,78.50
2023-04-26T03:49:17.203Z,78.60
2023-04-26T03:51:44.664Z,78.60
2023-04-26T03:54:11.618Z,78.80
2023-04-26T03:56:40.100Z,78.60
2023-04-26T03:59:09.751Z,78.70
2023-04-26T04:01:37.996Z,78.90
2023-04-26T04:04:05.245Z,79.00
2023-04-26T04:06:32.924Z,79.00
2023-04-26T04:09:01.317Z,79.30
2023-04-26T04:11:27.936Z,79.40
2023-04-26T04:13:54.671Z,80.30
2023-04-26T04:16:21.763Z,79.70
2023-04-26T04:18:48.658Z,80.00
2023-04-26T04:21:15.302Z,80.20
2023-04-26T04:23:43.383Z,80.30
2023-04-26T04:26:12.497Z,80.70
2023-04-26T04:28:41.472Z,80.80
2023-04-26T04:31:11.216Z,81.20
2023-04-26T04:33:37.952Z,81.30
2023-04-26T04:36:06.668Z,82.30
2023-04-26T04:38:33.474Z,81.80
2023-04-26T04:41:00.258Z,81.90
2023-04-26T04:43:27.898Z,82.20
2023-04-26T04:45:55.435Z,82.50
2023-04-26T04:48:22.294Z,82.90
2023-04-26T04:50:49.835Z,83.20
2023-04-26T04:53:17.254Z,83.30
2023-04-26T04:55:43.961Z,83.60
2023-04-26T04:58:13.905Z,83.80
2023-04-26T05:00:40.590Z,84.00
2023-04-26T05:03:19.475Z,84.20
2023-04-26T05:05:46.312Z,84.30
2023-04-26T05:08:13.110Z,84.40
2023-04-26T05:10:39.773Z,84.60
2023-04-26T05:13:07.396Z,84.70
2023-04-26T05:15:34.410Z,85.60
2023-04-26T05:18:01.388Z,84.90
2023-04-26T05:20:29.406Z,85.00
2023-04-26T05:22:56.205Z,85.80
2023-04-26T05:25:23.023Z,84.90
2023-04-26T05:27:55.335Z,85.00
2023-04-26T05:30:36.159Z,85.00
2023-04-26T05:33:23.338Z,84.90
2023-04-26T05:36:07.111Z,84.70
2023-04-26T05:38:33.843Z,84.60
2023-04-26T05:41:00.476Z,84.60
2023-04-26T05:43:28.246Z,84.80
2023-04-26T05:45:57.057Z,84.90
2023-04-26T05:48:25.299Z,85.30
2023-04-26T05:50:52.496Z,85.00
2023-04-26T05:53:19.906Z,85.30
2023-04-26T05:55:47.311Z,85.60
2023-04-26T05:58:15.016Z,85.70
2023-04-26T06:00:42.683Z,85.90
2023-04-26T06:03:09.769Z,85.90
2023-04-26T06:05:38.624Z,86.10
2023-04-26T06:08:05.858Z,86.30
2023-04-26T06:10:32.730Z,86.50
2023-04-26T06:12:59.402Z,86.60
2023-04-26T06:15:28.499Z,86.90
2023-04-26T06:17:55.647Z,87.00
2023-04-26T06:20:22.651Z,87.10
2023-04-26T06:22:49.417Z,87.40
2023-04-26T06:25:16.414Z,87.70
2023-04-26T06:27:43.192Z,88.10
2023-04-26T06:30:10.449Z,88.30
2023-04-26T06:32:42.208Z,88.60
2023-04-26T06:35:09.342Z,89.30
2023-04-26T06:37:36.897Z,90.00
2023-04-26T06:40:04.346Z,90.50
2023-04-26T06:42:31.434Z,90.80
2023-04-26T06:45:17.128Z,91.00
2023-04-26T06:47:47.970Z,91.00
2023-04-26T06:50:14.750Z,91.30
2023-04-26T06:52:41.369Z,90.70
2023-04-26T06:55:08.794Z,89.90
2023-04-26T06:57:35.447Z,87.60
2023-04-26T07:00:03.856Z,86.00
2023-04-26T07:02:31.690Z,84.60
2023-04-26T07:04:58.689Z,82.60
2023-04-26T07:07:25.625Z,81.70
2023-04-26T07:09:52.970Z,81.00
2023-04-26T07:12:19.596Z,80.00
2023-04-26T07:14:46.387Z,79.20
2023-04-26T07:17:13.098Z,78.30
2023-04-26T07:19:39.803Z,77.70
2023-04-26T07:22:06.659Z,77.10
2023-04-26T07:24:33.275Z,76.40
2023-04-26T07:27:00.009Z,76.00
2023-04-26T07:29:26.818Z,75.80
2023-04-26T07:31:53.462Z,75.50
2023-04-26T07:34:20.088Z,75.50
2023-04-26T07:36:46.849Z,75.60
2023-04-26T07:39:15.428Z,75.90
2023-04-26T07:41:43.820Z,75.90
2023-04-26T07:44:11.455Z,75.70
2023-04-26T07:46:38.189Z,75.50
2023-04-26T07:49:04.891Z,75.60
2023-04-26T07:51:31.873Z,75.30
2023-04-26T07:53:58.561Z,75.20
2023-04-26T07:56:25.294Z,75.20
2023-04-26T07:58:51.996Z,75.20
2023-04-26T08:01:18.725Z,75.10
2023-04-26T08:03:45.859Z,75.40
2023-04-26T08:06:12.896Z,75.80
2023-04-26T08:08:45.186Z,75.90
2023-04-26T08:11:11.995Z,75.60
2023-04-26T08:13:38.706Z,75.20
2023-04-26T08:16:06.321Z,74.80
2023-04-26T08:18:33.581Z,74.80
2023-04-26T08:21:00.291Z,75.10
2023-04-26T08:23:28.212Z,75.00
2023-04-26T08:25:54.869Z,75.00
2023-04-26T08:28:21.655Z,75.00
2023-04-26T08:30:48.419Z,74.50
2023-04-26T08:33:15.087Z,74.50
2023-04-26T08:35:41.757Z,74.60
2023-04-26T08:38:08.443Z,73.90
2023-04-26T08:40:36.419Z,73.50
2023-04-26T08:43:03.100Z,73.10
2023-04-26T08:45:31.223Z,73.30
2023-04-26T08:48:05.588Z,73.30
2023-04-26T08:50:34.329Z,72.80
2023-04-26T08:53:01.182Z,72.70
2023-04-26T08:55:28.310Z,72.20
2023-04-26T08:57:55.938Z,71.90
2023-04-26T09:00:23.482Z,71.70
2023-04-26T09:02:52.583Z,71.60
2023-04-26T09:05:24.543Z,72.20
2023-04-26T09:08:16.695Z,73.20
2023-04-26T09:10:43.701Z,73.70
2023-04-26T09:13:11.391Z,74.50
2023-04-26T09:15:38.443Z,74.00
2023-04-26T09:18:21.884Z,72.80
2023-04-26T09:21:08.776Z,70.20
2023-04-26T09:23:35.632Z,68.70
2023-04-26T09:26:22.251Z,69.20
2023-04-26T09:28:49.530Z,67.20
2023-04-26T09:31:38.226Z,68.10
2023-04-26T09:34:05.000Z,66.40
2023-04-26T09:36:32.178Z,67.00
2023-04-26T09:38:59.102Z,66.50
2023-04-26T09:41:43.342Z,66.20
2023-04-26T09:44:22.663Z,64.80
2023-04-26T09:47:04.010Z,64.60
2023-04-26T09:49:52.438Z,64.20
2023-04-26T09:52:20.115Z,64.70
2023-04-26T09:54:52.111Z,64.80
2023-04-26T09:57:20.287Z,64.60
2023-04-26T09:59:49.091Z,64.90
2023-04-26T10:02:17.849Z,65.10
2023-04-26T10:04:48.992Z,66.10
2023-04-26T10:07:18.274Z,66.60
2023-04-26T10:09:46.620Z,67.40
2023-04-26T10:12:15.253Z,66.30
2023-04-26T10:14:43.076Z,65.70
2023-04-26T10:17:11.685Z,65.50
2023-04-26T10:19:41.198Z,64.80
2023-04-26T10:22:17.577Z,64.20
2023-04-26T10:24:45.678Z,63.30
2023-04-26T10:27:12.653Z,63.50
2023-04-26T10:29:54.566Z,63.50
2023-04-26T10:32:24.371Z,62.30
2023-04-26T10:35:14.350Z,62.60
2023-04-26T10:38:09.073Z,61.80
2023-04-26T10:40:41.080Z,62.20
2023-04-26T10:43:14.721Z,62.70
2023-04-26T10:45:43.506Z,62.60
2023-04-26T10:48:19.696Z,62.90
2023-04-26T10:51:01.714Z,63.00
2023-04-26T10:53:33.340Z,62.40
2023-04-26T10:56:00.047Z,62.80
2023-04-26T10:58:34.056Z,62.50
2023-04-26T11:01:04.550Z,61.80
2023-04-26T11:03:31.788Z,61.30
2023-04-26T11:05:59.115Z,61.40
2023-04-26T11:08:27.962Z,61.20
2023-04-26T11:11:10.619Z,61.40
2023-04-26T11:13:42.023Z,60.90
2023-04-26T11:16:10.622Z,61.20
2023-04-26T11:18:43.270Z,61.60
2023-04-26T11:21:12.079Z,61.70
2023-04-26T11:23:40.324Z,61.90
2023-04-26T11:26:08.792Z,61.80
2023-04-26T11:28:37.079Z,61.80
2023-04-26T11:31:05.512Z,61.60
2023-04-26T11:33:34.134Z,61.10
2023-04-26T11:36:00.882Z,61.00
2023-04-26T11:38:29.061Z,61.00
2023-04-26T11:41:03.377Z,60.70
2023-04-26T11:43:36.687Z,60.60
2023-04-26T11:46:08.490Z,60.40
2023-04-26T11:48:37.264Z,60.60
2023-04-26T11:51:05.441Z,60.70
2023-04-26T11:53:40.225Z,60.70
2023-04-26T11:56:27.246Z,60.50
2023-04-26T11:58:54.155Z,60.30
2023-04-26T12:01:28.307Z,60.50
2023-04-26T12:03:57.389Z,59.90
2023-04-26T12:06:43.850Z,60.20
2023-04-26T12:09:12.231Z,59.80
2023-04-26T12:11:39.746Z,60.30
2023-04-26T12:14:07.916Z,60.50
2023-04-26T12:16:38.067Z,60.50
2023-04-26T12:19:07.152Z,60.40
2023-04-26T12:21:44.445Z,60.70
2023-04-26T12:24:25.422Z,60.80
2023-04-26T12:26:52.413Z,60.60
2023-04-26T12:29:19.214Z,60.90
2023-04-26T12:31:46.859Z,60.70
2023-04-26T12:34:13.658Z,60.80
2023-04-26T12:36:44.302Z,61.00
2023-04-26T12:39:13.301Z,61.10
2023-04-26T12:41:41.218Z,61.10
2023-04-26T12:44:08.890Z,61.10
2023-04-26T12:46:36.627Z,61.10
2023-04-26T12:49:04.053Z,61.00
2023-04-26T12:51:31.887Z,61.00
2023-04-26T12:53:58.606Z,61.10
2023-04-26T12:56:25.643Z,61.10
2023-04-26T12:58:52.464Z,60.60
2023-04-26T13:01:19.179Z,60.60
2023-04-26T13:03:46.286Z,60.60
2023-04-26T13:06:13.212Z,60.50
2023-04-26T13:08:40.056Z,60.20
2023-04-26T13:11:07.019Z,60.10
2023-04-26T13:13:42.935Z,60.00
2023-04-26T13:16:12.467Z,59.90
2023-04-26T13:18:39.641Z,59.90
2023-04-26T13:21:06.321Z,59.80
2023-04-26T13:23:33.020Z,59.80
2023-04-26T13:25:59.696Z,59.50
2023-04-26T13:28:26.341Z,59.50
2023-04-26T13:30:53.170Z,59.40
2023-04-26T13:33:20.987Z,59.40
2023-04-26T13:35:47.689Z,59.60
2023-04-26T13:38:14.501Z,59.50
2023-04-26T13:40:41.454Z,59.40
2023-04-26T13:43:08.132Z,59.40
2023-04-26T13:45:36.559Z,59.20
2023-04-26T13:48:03.429Z,59.10
2023-04-26T13:50:30.197Z,58.90
2023-04-26T13:52:56.873Z,58.90
2023-04-26T13:55:23.724Z,58.80
2023-04-26T13:57:50.443Z,58.90
2023-04-26T14:00:17.603Z,58.80
2023-04-26T14:02:46.248Z,58.90
2023-04-26T14:05:13.271Z,58.90
2023-04-26T14:07:41.482Z,58.80
2023-04-26T14:10:08.971Z,58.60
2023-04-26T14:12:35.686Z,58.80
2023-04-26T14:15:04.260Z,58.80
2023-04-26T14:17:32.418Z,58.90
2023-04-26T14:19:59.128Z,59.00
2023-04-26T14:22:26.983Z,59.00
2023-04-26T14:24:53.690Z,58.70
2023-04-26T14:27:20.766Z,58.80
2023-04-26T14:29:47.540Z,58.90
2023-04-26T14:32:14.301Z,58.90
2023-04-26T14:34:41.827Z,58.90
2023-04-26T14:37:08.926Z,58.80
2023-04-26T14:39:35.693Z,58.70
2023-04-26T14:42:03.347Z,58.70
2023-04-26T14:44:30.304Z,58.70
2023-04-26T14:46:57.024Z,58.60
2023-04-26T14:49:23.777Z,58.60
2023-04-26T14:51:53.009Z,58.80
2023-04-26T14:54:20.941Z,58.70
2023-04-26T14:56:47.779Z,58.70
2023-04-26T14:59:14.464Z,58.60
2023-04-26T15:01:41.438Z,58.70
2023-04-26T15:04:08.323Z,59.00
2023-04-26T15:06:35.303Z,59.10
2023-04-26T15:09:02.001Z,59.10
2023-04-26T15:11:28.704Z,59.10
2023-04-26T15:13:55.363Z,59.10
2023-04-26T15:16:22.754Z,59.00
2023-04-26T15:18:49.471Z,59.00
2023-04-26T15:21:19.711Z,58.90
2023-04-26T15:23:46.624Z,58.70
2023-04-26T15:26:13.705Z,58.80
2023-04-26T15:28:40.737Z,58.70
2023-04-26T15:31:11.212Z,58.70
2023-04-26T15:33:37.964Z,58.80
2023-04-26T15:36:05.378Z,58.90
2023-04-26T15:38:34.638Z,59.00
2023-04-26T15:41:01.309Z,59.00
2023-04-26T15:43:27.960Z,59.00
2023-04-26T15:45:54.939Z,59.00
2023-04-26T15:48:21.842Z,59.10
2023-04-26T15:50:48.569Z,59.20
2023-04-26T15:53:15.961Z,59.20
2023-04-26T15:55:42.755Z,59.20
2023-04-26T15:58:09.414Z,59.20
2023-04-26T16:00:36.571Z,59.20
2023-04-26T16:03:03.363Z,59.30
2023-04-26T16:05:31.644Z,59.30
2023-04-26T16:07:59.534Z,59.20
2023-04-26T16:10:26.936Z,59.10
2023-04-26T16:12:56.446Z,58.90
2023-04-26T16:15:23.247Z,58.90
2023-04-26T16:17:50.008Z,59.10
2023-04-26T16:20:16.708Z,59.00
2023-04-26T16:22:44.719Z,59.00
2023-04-26T16:25:12.049Z,58.70
2023-04-26T16:27:38.696Z,58.70
2023-04-26T16:30:05.860Z,58.70
2023-04-26T16:32:33.017Z,58.70
2023-04-26T16:34:59.684Z,58.60
2023-04-26T16:37:26.468Z,58.60
2023-04-26T16:39:56.586Z,58.70
2023-04-26T16:42:23.302Z,58.60
2023-04-26T16:44:49.980Z,58.70
2023-04-26T16:47:16.577Z,58.60
2023-04-26T16:49:43.253Z,58.60
2023-04-26T16:52:12.978Z,58.60
2023-04-26T16:54:39.862Z,58.60
2023-04-26T16:57:06.502Z,58.70
2023-04-26T16:59:33.114Z,58.80
2023-04-26T17:01:59.887Z,58.90
2023-04-26T17:04:27.226Z,58.90
2023-04-26T17:06:54.738Z,58.90
2023-04-26T17:09:21.499Z,58.90
2023-04-26T17:11:49.791Z,58.90
2023-04-26T17:14:16.470Z,59.00
2023-04-26T17:16:43.223Z,59.00
2023-04-26T17:19:10.074Z,59.20
2023-04-26T17:21:36.789Z,59.20
2023-04-26T17:24:03.667Z,59.10
2023-04-26T17:26:30.822Z,59.10
2023-04-26T17:28:57.494Z,59.20
2023-04-26T17:31:24.238Z,59.10
2023-04-26T17:33:50.935Z,59.70
2023-04-26T17:36:17.831Z,59.10
2023-04-26T17:38:44.634Z,59.40
2023-04-26T17:41:12.984Z,59.40
2023-04-26T17:43:39.675Z,59.50
2023-04-26T17:46:06.370Z,59.60
2023-04-26T17:48:33.065Z,59.70
2023-04-26T17:50:59.691Z,59.70
2023-04-26T17:53:26.383Z,59.70
2023-04-26T17:55:53.083Z,59.70
2023-04-26T17:58:19.856Z,59.80
2023-04-26T18:00:46.821Z,59.90
2023-04-26T18:03:13.632Z,60.10
2023-04-26T18:05:40.694Z,60.20
2023-04-26T18:08:07.328Z,60.30
2023-04-26T18:10:34.033Z,60.40
2023-04-26T18:13:00.622Z,60.30
2023-04-26T18:15:27.455Z,60.30
2023-04-26T18:17:54.185Z,60.40
2023-04-26T18:20:21.298Z,60.30
2023-04-26T18:22:48.000Z,60.40
2023-04-26T18:25:15.436Z,60.50
2023-04-26T18:27:42.165Z,60.70
2023-04-26T18:30:09.434Z,60.70
2023-04-26T18:32:36.138Z,60.80
2023-04-26T18:35:06.085Z,60.90
2023-04-26T18:37:32.972Z,61.10
2023-04-26T18:39:59.695Z,61.10
2023-04-26T18:42:26.424Z,61.20
2023-04-26T18:44:53.409Z,61.40
2023-04-26T18:47:20.480Z,62.30
2023-04-26T18:49:47.223Z,61.50
2023-04-26T18:52:13.892Z,61.60
2023-04-26T18:54:40.906Z,61.70
2023-04-26T18:57:07.585Z,61.60
2023-04-26T18:59:34.231Z,61.70
2023-04-26T19:02:01.583Z,61.90
2023-04-26T19:04:28.531Z,61.90
2023-04-26T19:06:55.381Z,61.90
2023-04-26T19:09:22.027Z,62.10
2023-04-26T19:11:49.024Z,62.10
2023-04-26T19:14:15.860Z,62.10
2023-04-26T19:16:42.578Z,62.40
2023-04-26T19:19:11.120Z,62.50
2023-04-26T19:21:38.410Z,62.60
2023-04-26T19:24:05.468Z,62.70
2023-04-26T19:26:32.394Z,62.80
2023-04-26T19:28:59.080Z,62.90
2023-04-26T19:31:25.755Z,62.80
2023-04-26T19:33:52.476Z,62.90
2023-04-26T19:36:20.061Z,63.00
2023-04-26T19:38:48.432Z,63.00
2023-04-26T19:41:15.245Z,63.00
2023-04-26T19:43:41.909Z,63.00
2023-04-26T19:46:13.069Z,63.10
2023-04-26T19:48:40.761Z,63.10
2023-04-26T19:51:07.389Z,63.10
2023-04-26T19:53:35.152Z,63.20
2023-04-26T19:56:01.813Z,63.20
2023-04-26T19:58:28.443Z,63.20
2023-04-26T20:00:55.085Z,63.30
2023-04-26T20:03:21.859Z,63.50
2023-04-26T20:05:49.416Z,63.50
2023-04-26T20:08:16.682Z,64.40
2023-04-26T20:10:43.307Z,63.60
2023-04-26T20:13:10.072Z,63.70
2023-04-26T20:15:36.768Z,63.80
2023-04-26T20:18:03.694Z,64.00
2023-04-26T20:20:30.518Z,64.00
2023-04-26T20:22:57.170Z,64.10
2023-04-26T20:25:24.042Z,64.30
2023-04-26T20:27:50.972Z,64.40
2023-04-26T20:30:19.947Z,64.40
2023-04-26T20:32:46.664Z,64.60
2023-04-26T20:35:13.636Z,64.60
2023-04-26T20:37:40.540Z,64.60
2023-04-26T20:40:07.885Z,64.60
2023-04-26T20:42:34.567Z,64.70
2023-04-26T20:45:02.419Z,64.60
2023-04-26T20:47:29.499Z,64.80
2023-04-26T20:49:56.566Z,65.00
2023-04-26T20:52:23.272Z,65.00
2023-04-26T20:54:49.892Z,65.00
2023-04-26T20:57:16.852Z,65.20
2023-04-26T20:59:43.554Z,65.10
2023-04-26T21:02:10.430Z,65.20
2023-04-26T21:04:38.568Z,65.30
2023-04-26T21:07:05.617Z,65.40
2023-04-26T21:09:32.341Z,65.50
2023-04-26T21:11:58.958Z,65.60
2023-04-26T21:14:26.064Z,65.70
2023-04-26T21:16:52.681Z,65.70
2023-04-26T21:19:19.971Z,65.80
2023-04-26T21:21:46.912Z,65.70
2023-04-26T21:24:13.649Z,65.80
2023-04-26T21:26:40.304Z,65.80
2023-04-26T21:29:07.530Z,65.90
2023-04-26T21:31:34.343Z,66.00
2023-04-26T21:34:01.306Z,66.10
2023-04-26T21:36:28.068Z,66.10
2023-04-26T21:38:54.684Z,66.10
2023-04-26T21:41:21.381Z,66.20
2023-04-26T21:43:48.069Z,66.10
2023-04-26T21:46:14.896Z,66.10
2023-04-26T21:48:41.609Z,66.20
2023-04-26T21:51:08.259Z,66.30
2023-04-26T21:53:34.903Z,66.50
2023-04-26T21:56:01.518Z,66.50
2023-04-26T21:58:28.176Z,66.50
2023-04-26T22:00:54.827Z,66.50
2023-04-26T22:03:21.858Z,66.50
2023-04-26T22:05:48.706Z,66.60
2023-04-26T22:08:15.376Z,66.60
2023-04-26T22:10:42.111Z,66.80
2023-04-26T22:13:08.793Z,66.70
2023-04-26T22:15:35.569Z,66.80
2023-04-26T22:18:02.326Z,67.60
2023-04-26T22:20:29.872Z,66.90
2023-04-26T22:22:56.630Z,67.00
2023-04-26T22:25:24.300Z,67.10
2023-04-26T22:27:51.586Z,67.20
2023-04-26T22:30:25.391Z,67.30
2023-04-26T22:32:55.222Z,67.40
2023-04-26T22:35:23.152Z,67.50
2023-04-26T22:37:50.429Z,67.70
2023-04-26T22:40:17.330Z,67.70
2023-04-26T22:42:44.313Z,67.70
2023-04-26T22:45:12.375Z,67.80
2023-04-26T22:47:39.888Z,67.90
2023-04-26T22:50:07.419Z,68.00
2023-04-26T22:52:34.877Z,68.00
2023-04-26T22:55:01.624Z,68.10
2023-04-26T22:57:30.885Z,68.20
2023-04-26T22:59:57.635Z,68.40
2023-04-26T23:02:24.462Z,68.40
2023-04-26T23:04:51.274Z,68.60
2023-04-26T23:07:18.053Z,68.50
2023-04-26T23:09:44.764Z,68.60
2023-04-26T23:12:11.652Z,68.70
2023-04-26T23:14:41.201Z,68.80
2023-04-26T23:17:07.879Z,68.80
2023-04-26T23:19:34.971Z,68.90
2023-04-26T23:22:01.589Z,69.00
2023-04-26T23:24:28.192Z,69.00
2023-04-26T23:26:54.848Z,69.10
2023-04-26T23:29:21.607Z,69.20
2023-04-26T23:31:48.289Z,69.10
2023-04-26T23:34:15.006Z,69.20
2023-04-26T23:36:41.691Z,69.30
2023-04-26T23:39:08.768Z,69.30
2023-04-26T23:41:35.833Z,69.30
2023-04-26T23:44:02.583Z,69.40
2023-04-26T23:46:29.422Z,69.50
2023-04-26T23:48:56.265Z,69.60
2023-04-26T23:51:22.958Z,69.70
2023-04-26T23:53:49.815Z,69.70
2023-04-26T23:56:16.504Z,69.70
2023-04-26T23:58:43.197Z,69.90
